Foneswood, Virginia
Current Conditions -  °F | °C
As of 7:15 AM on Wednesday 28 Jan 2015 (Local Time) from KXSA Reporting Station
Clear Clear  
Wind Chill: 16°   Ceiling: Unl
Heat Index: 25°   Visibility: 10mi
Dew Point:   Wind: 9mph
Humidity: 47%   Direction: 330°NNW
Pressure: 30.16"   Gusts: NA
Location:  38.1°N, 76.9°W
Report Text: KXSA 281215Z AUTO 33008KT 10SM CLR M04/M14 A3016 RMK AO2 T10381136
Loading
Personal Weather Stations






























Interactive Weather Map New forecast layout! Learn more

10-Day Weather Forecast

Advertisements
Track Severe Weather on mobile